createdAt,value
2017-09-23T00:00:40.424Z,13.33
2017-09-23T00:01:40.111Z,13.36
2017-09-23T00:02:40.317Z,13.42
2017-09-23T00:03:39.997Z,13.28
2017-09-23T00:04:39.994Z,13.27
2017-09-23T00:05:40.089Z,13.23
2017-09-23T00:06:39.670Z,13.26
2017-09-23T00:07:40.126Z,13.21
2017-09-23T00:08:39.970Z,13.27
2017-09-23T00:09:39.970Z,13.21
2017-09-23T00:10:40.273Z,13.26
2017-09-23T00:11:40.362Z,13.28
2017-09-23T00:12:39.954Z,13.21
2017-09-23T00:13:40.193Z,13.17
2017-09-23T00:14:39.629Z,13.33
2017-09-23T00:15:39.931Z,13.21
2017-09-23T00:16:39.927Z,13.26
2017-09-23T00:17:39.921Z,13.17
2017-09-23T00:18:40.069Z,13.08
2017-09-23T00:19:40.224Z,13.12
2017-09-23T00:20:39.904Z,13.06
2017-09-23T00:21:39.900Z,13.06
2017-09-23T00:22:40.211Z,12.95
2017-09-23T00:23:40.199Z,12.99
2017-09-23T00:24:40.347Z,12.95
2017-09-23T00:25:39.570Z,12.95
2017-09-23T00:26:39.875Z,12.81
2017-09-23T00:27:39.868Z,12.83
2017-09-23T00:28:39.867Z,12.84
2017-09-23T00:29:40.271Z,12.81
2017-09-23T00:30:40.262Z,12.78
2017-09-23T00:31:40.256Z,12.8
2017-09-23T00:32:39.841Z,12.84
2017-09-23T00:33:39.840Z,12.81
2017-09-23T00:34:39.670Z,12.84
2017-09-23T00:35:39.824Z,12.87
2017-09-23T00:36:39.820Z,12.94
2017-09-23T00:37:40.128Z,12.88
2017-09-23T00:38:39.807Z,12.9
2017-09-23T00:39:40.115Z,12.91
2017-09-23T00:40:39.946Z,12.9
2017-09-23T00:41:39.791Z,12.84
2017-09-23T00:42:39.787Z,12.75
2017-09-23T00:43:40.092Z,12.81
2017-09-23T00:44:39.465Z,12.69
2017-09-23T00:45:39.769Z,12.73
2017-09-23T00:46:39.453Z,12.69
2017-09-23T00:47:39.449Z,12.72
2017-09-23T00:48:39.755Z,12.69
2017-09-23T00:49:39.436Z,12.7
2017-09-23T00:50:39.733Z,12.66
2017-09-23T00:51:39.741Z,12.83
2017-09-23T00:52:39.737Z,12.83
2017-09-23T00:53:39.518Z,12.81
2017-09-23T00:54:39.818Z,12.93
2017-09-23T00:55:39.404Z,12.91
2017-09-23T00:56:39.859Z,12.9
2017-09-23T00:57:39.704Z,12.86
2017-09-23T00:58:39.698Z,12.84
2017-09-23T00:59:40.006Z,12.7
2017-09-23T01:00:39.994Z,12.73
2017-09-23T01:01:39.779Z,12.72
2017-09-23T01:02:39.996Z,12.68
2017-09-23T01:03:39.672Z,12.73
2017-09-23T01:04:39.665Z,12.63
2017-09-23T01:05:39.659Z,12.58
2017-09-23T01:06:40.117Z,12.62
2017-09-23T01:07:39.749Z,12.57
2017-09-23T01:08:39.434Z,12.66
2017-09-23T01:09:39.947Z,12.62
2017-09-23T01:10:39.941Z,12.57
2017-09-23T01:11:39.626Z,12.8
2017-09-23T01:12:39.935Z,12.75
2017-09-23T01:13:39.408Z,12.76
2017-09-23T01:14:39.759Z,12.72
2017-09-23T01:15:39.607Z,12.63
2017-09-23T01:16:39.599Z,12.8
2017-09-23T01:17:39.593Z,12.72
2017-09-23T01:18:39.589Z,12.69
2017-09-23T01:19:39.581Z,12.58
2017-09-23T01:20:39.677Z,12.54
2017-09-23T01:21:39.574Z,12.57
2017-09-23T01:22:39.256Z,12.55
2017-09-23T01:23:39.558Z,12.61
2017-09-23T01:24:39.656Z,12.61
2017-09-23T01:25:39.552Z,12.58
2017-09-23T01:26:39.544Z,12.47
2017-09-23T01:27:39.850Z,12.51
2017-09-23T01:28:39.354Z,12.43
2017-09-23T01:29:39.315Z,12.44
2017-09-23T01:30:39.524Z,12.37
2017-09-23T01:31:39.517Z,12.33
2017-09-23T01:32:39.612Z,12.32
2017-09-23T01:33:39.814Z,12.35
2017-09-23T01:34:39.501Z,12.43
2017-09-23T01:35:39.492Z,12.44
2017-09-23T01:36:39.488Z,12.39
2017-09-23T01:37:39.896Z,12.32
2017-09-23T01:38:39.477Z,12.33
2017-09-23T01:39:39.803Z,12.35
2017-09-23T01:40:39.474Z,12.32
2017-09-23T01:41:39.462Z,12.36
2017-09-23T01:42:39.457Z,12.32
2017-09-23T01:43:39.919Z,12.32
2017-09-23T01:44:39.233Z,12.32
2017-09-23T01:45:39.752Z,12.3
2017-09-23T01:46:39.744Z,12.26
2017-09-23T01:47:39.123Z,12.28
2017-09-23T01:48:39.312Z,12.25
2017-09-23T01:49:39.732Z,12.29
2017-09-23T01:50:39.101Z,12.23
2017-09-23T01:51:39.409Z,12.33
2017-09-23T01:52:39.089Z,12.29
2017-09-23T01:53:39.499Z,12.3
2017-09-23T01:54:39.076Z,12.33
2017-09-23T01:55:39.844Z,12.25
2017-09-23T01:56:39.070Z,12.33
2017-09-23T01:57:39.060Z,12.35
2017-09-23T01:58:39.780Z,12.32
2017-09-23T01:59:39.048Z,12.28
2017-09-23T02:00:39.356Z,12.28
2017-09-23T02:01:39.347Z,12.29
2017-09-23T02:02:39.757Z,12.3
2017-09-23T02:03:39.339Z,12.35
2017-09-23T02:04:39.020Z,12.4
2017-09-23T02:05:39.117Z,12.25
2017-09-23T02:06:39.576Z,12.29
2017-09-23T02:07:39.318Z,12.23
2017-09-23T02:08:39.775Z,12.29
2017-09-23T02:09:38.993Z,12.23
2017-09-23T02:10:39.401Z,12.23
2017-09-23T02:11:39.757Z,12.21
2017-09-23T02:12:38.975Z,12.18
2017-09-23T02:13:39.281Z,12.25
2017-09-23T02:14:38.965Z,12.26
2017-09-23T02:15:38.959Z,12.26
2017-09-23T02:16:39.366Z,12.26
2017-09-23T02:17:39.051Z,12.14
2017-09-23T02:18:38.944Z,12.15
2017-09-23T02:19:38.936Z,12.08
2017-09-23T02:20:39.246Z,12.05
2017-09-23T02:21:39.551Z,12.14
2017-09-23T02:22:38.920Z,12.14
2017-09-23T02:23:39.539Z,12.11
2017-09-23T02:24:38.911Z,12.14
2017-09-23T02:25:39.214Z,12.17
2017-09-23T02:26:38.901Z,12.11
2017-09-23T02:27:39.355Z,12.03
2017-09-23T02:28:39.198Z,12.11
2017-09-23T02:29:39.190Z,12.11
2017-09-23T02:30:39.497Z,12.12
2017-09-23T02:31:38.871Z,12.07
2017-09-23T02:32:39.491Z,12.17
2017-09-23T02:33:39.578Z,12.21
2017-09-23T02:34:38.952Z,12.29
2017-09-23T02:35:38.848Z,12.15
2017-09-23T02:36:39.151Z,12.11
2017-09-23T02:37:39.458Z,12.07
2017-09-23T02:38:39.455Z,12.08
2017-09-23T02:39:39.236Z,12.15
2017-09-23T02:40:38.821Z,12.02
2017-09-23T02:41:39.534Z,12.02
2017-09-23T02:42:39.271Z,11.95
2017-09-23T02:43:39.112Z,11.86
2017-09-23T02:44:38.798Z,11.95
2017-09-23T02:45:39.106Z,11.93
2017-09-23T02:46:39.096Z,11.86
2017-09-23T02:47:39.189Z,11.89
2017-09-23T02:48:39.189Z,11.97
2017-09-23T02:49:38.770Z,11.99
2017-09-23T02:50:39.388Z,11.86
2017-09-23T02:51:39.069Z,11.97
2017-09-23T02:52:39.470Z,11.88
2017-09-23T02:53:38.847Z,11.88
2017-09-23T02:54:39.462Z,11.88
2017-09-23T02:55:38.736Z,11.89
2017-09-23T02:56:39.352Z,11.85
2017-09-23T02:57:39.134Z,11.81
2017-09-23T02:58:38.719Z,11.76
2017-09-23T02:59:39.172Z,11.7
2017-09-23T03:00:39.016Z,11.74
2017-09-23T03:01:38.702Z,11.74
2017-09-23T03:02:39.110Z,11.68
2017-09-23T03:03:38.842Z,11.73
2017-09-23T03:04:39.145Z,11.59
2017-09-23T03:05:38.779Z,11.68
2017-09-23T03:06:38.983Z,11.7
2017-09-23T03:07:39.129Z,11.67
2017-09-23T03:08:38.670Z,11.67
2017-09-23T03:09:38.658Z,11.76
2017-09-23T03:10:38.648Z,11.76
2017-09-23T03:11:38.646Z,11.73
2017-09-23T03:12:39.051Z,11.78
2017-09-23T03:13:39.044Z,11.68
2017-09-23T03:14:39.248Z,11.63
2017-09-23T03:15:39.339Z,11.7
2017-09-23T03:16:38.926Z,11.63
2017-09-23T03:17:39.331Z,11.58
2017-09-23T03:18:39.014Z,11.59
2017-09-23T03:19:38.914Z,11.55
2017-09-23T03:20:38.691Z,11.56
2017-09-23T03:21:38.585Z,11.56
2017-09-23T03:22:38.890Z,11.51
2017-09-23T03:23:38.577Z,11.55
2017-09-23T03:24:38.569Z,11.55
2017-09-23T03:25:39.182Z,11.53
2017-09-23T03:26:38.560Z,11.52
2017-09-23T03:27:38.863Z,11.53
2017-09-23T03:28:38.955Z,11.48
2017-09-23T03:29:39.160Z,11.52
2017-09-23T03:30:38.859Z,11.4
2017-09-23T03:31:39.150Z,11.41
2017-09-23T03:32:39.297Z,11.4
2017-09-23T03:33:39.140Z,11.48
2017-09-23T03:34:38.513Z,11.52
2017-09-23T03:35:38.507Z,11.43
2017-09-23T03:36:38.499Z,11.45
2017-09-23T03:37:39.215Z,11.43
2017-09-23T03:38:38.801Z,11.44
2017-09-23T03:39:38.486Z,11.38
2017-09-23T03:40:39.096Z,11.37
2017-09-23T03:41:38.784Z,11.34
2017-09-23T03:42:38.877Z,11.33
2017-09-23T03:43:39.082Z,11.38
2017-09-23T03:44:38.764Z,11.38
2017-09-23T03:45:38.448Z,11.51
2017-09-23T03:46:38.755Z,11.41
2017-09-23T03:47:39.208Z,11.48
2017-09-23T03:48:38.745Z,11.43
2017-09-23T03:49:38.739Z,11.4
2017-09-23T03:50:39.041Z,11.43
2017-09-23T03:51:38.826Z,11.51
2017-09-23T03:52:38.719Z,11.43
2017-09-23T03:53:38.503Z,11.49
2017-09-23T03:54:38.859Z,11.43
2017-09-23T03:55:38.700Z,11.52
2017-09-23T03:56:39.008Z,11.58
2017-09-23T03:57:38.380Z,11.49
2017-09-23T03:58:38.375Z,11.51
2017-09-23T03:59:38.990Z,11.51
2017-09-23T04:00:38.363Z,11.51
2017-09-23T04:01:38.817Z,11.45
2017-09-23T04:02:38.351Z,11.38
2017-09-23T04:03:38.661Z,11.38
2017-09-23T04:04:38.341Z,11.38
2017-09-23T04:05:38.957Z,11.31
2017-09-23T04:06:38.636Z,11.35
2017-09-23T04:07:38.575Z,11.34
2017-09-23T04:08:38.417Z,11.35
2017-09-23T04:09:38.621Z,11.41
2017-09-23T04:10:38.617Z,11.34
2017-09-23T04:11:38.612Z,11.41
2017-09-23T04:12:38.605Z,11.49
2017-09-23T04:13:38.699Z,11.41
2017-09-23T04:14:38.909Z,11.44
2017-09-23T04:15:38.586Z,11.51
2017-09-23T04:16:38.579Z,11.53
2017-09-23T04:17:38.578Z,11.51
2017-09-23T04:18:38.568Z,11.59
2017-09-23T04:19:38.873Z,11.59
2017-09-23T04:20:38.556Z,11.58
2017-09-23T04:21:38.240Z,11.53
2017-09-23T04:22:38.549Z,11.53
2017-09-23T04:23:38.542Z,11.52
2017-09-23T04:24:38.947Z,11.41
2017-09-23T04:25:38.529Z,11.45
2017-09-23T04:26:38.523Z,11.41
2017-09-23T04:27:38.927Z,11.48
2017-09-23T04:28:38.511Z,11.49
2017-09-23T04:29:38.511Z,11.49
2017-09-23T04:30:38.292Z,11.53
2017-09-23T04:31:38.495Z,11.6
2017-09-23T04:32:38.487Z,11.6
2017-09-23T04:33:38.171Z,11.63
2017-09-23T04:34:38.267Z,11.63
2017-09-23T04:35:38.473Z,11.62
2017-09-23T04:36:38.466Z,11.55
2017-09-23T04:37:38.460Z,11.6
2017-09-23T04:38:38.142Z,11.53
2017-09-23T04:39:38.139Z,11.62
2017-09-23T04:40:38.952Z,11.63
2017-09-23T04:41:38.438Z,11.71
2017-09-23T04:42:38.527Z,11.76
2017-09-23T04:43:38.430Z,11.73
2017-09-23T04:44:38.109Z,11.73
2017-09-23T04:45:38.413Z,11.65
2017-09-23T04:46:38.438Z,11.74
2017-09-23T04:47:38.192Z,11.67
2017-09-23T04:48:38.107Z,11.6
2017-09-23T04:49:38.080Z,11.67
2017-09-23T04:50:38.796Z,11.68
2017-09-23T04:51:38.378Z,11.67
2017-09-23T04:52:38.162Z,11.53
2017-09-23T04:53:38.462Z,11.58
2017-09-23T04:54:38.361Z,11.6
2017-09-23T04:55:38.507Z,11.59
2017-09-23T04:56:38.138Z,11.55
2017-09-23T04:57:38.441Z,11.49
2017-09-23T04:58:38.339Z,11.51
2017-09-23T04:59:38.330Z,11.53
2017-09-23T05:00:38.012Z,11.52
2017-09-23T05:01:38.009Z,11.51
2017-09-23T05:02:38.412Z,11.6
2017-09-23T05:03:38.406Z,11.53
2017-09-23T05:04:37.991Z,11.56
2017-09-23T05:05:38.296Z,11.63
2017-09-23T05:06:38.291Z,11.62
2017-09-23T05:07:38.385Z,11.59
2017-09-23T05:08:38.281Z,11.53
2017-09-23T05:09:38.012Z,11.58
2017-09-23T05:10:38.627Z,11.52
2017-09-23T05:11:38.264Z,11.51
2017-09-23T05:12:37.941Z,11.51
2017-09-23T05:13:38.255Z,11.41
2017-09-23T05:14:38.244Z,11.45
2017-09-23T05:15:38.244Z,11.48
2017-09-23T05:16:38.239Z,11.53
2017-09-23T05:17:38.229Z,11.51
2017-09-23T05:18:37.906Z,11.48
2017-09-23T05:19:38.527Z,11.53
2017-09-23T05:20:38.523Z,11.53
2017-09-23T05:21:38.515Z,11.53
2017-09-23T05:22:37.884Z,11.56
2017-09-23T05:23:37.980Z,11.49
2017-09-23T05:24:38.499Z,11.52
2017-09-23T05:25:38.492Z,11.51
2017-09-23T05:26:38.172Z,11.51
2017-09-23T05:27:38.476Z,11.56
2017-09-23T05:28:38.169Z,11.59
2017-09-23T05:29:38.156Z,11.6
2017-09-23T05:30:38.146Z,11.62
2017-09-23T05:31:38.144Z,11.76
2017-09-23T05:32:38.447Z,11.77
2017-09-23T05:33:38.135Z,11.8
2017-09-23T05:34:38.124Z,11.89
2017-09-23T05:35:37.806Z,11.96
2017-09-23T05:36:38.218Z,11.93
2017-09-23T05:37:37.797Z,11.88
2017-09-23T05:38:38.421Z,11.88
2017-09-23T05:39:38.096Z,11.99
2017-09-23T05:40:37.782Z,11.95
2017-09-23T05:41:38.134Z,11.99
2017-09-23T05:42:37.769Z,12
2017-09-23T05:43:38.080Z,11.95
2017-09-23T05:44:38.065Z,12.05
2017-09-23T05:45:38.065Z,12.07
2017-09-23T05:46:38.364Z,12.14
2017-09-23T05:47:38.054Z,12.08
2017-09-23T05:48:37.731Z,12.05
2017-09-23T05:49:38.033Z,12.11
2017-09-23T05:50:38.031Z,12.17
2017-09-23T05:51:38.024Z,12.11
2017-09-23T05:52:38.019Z,12
2017-09-23T05:53:37.703Z,12.03
2017-09-23T05:54:38.010Z,12.03
2017-09-23T05:55:38.002Z,11.96
2017-09-23T05:56:37.997Z,11.99
2017-09-23T05:57:37.679Z,11.97
2017-09-23T05:58:37.985Z,12.12
2017-09-23T05:59:38.031Z,11.99
2017-09-23T06:00:38.286Z,11.99
2017-09-23T06:01:37.659Z,11.93
2017-09-23T06:02:37.658Z,11.99
2017-09-23T06:03:37.647Z,11.99
2017-09-23T06:04:37.639Z,11.86
2017-09-23T06:05:37.992Z,11.99
2017-09-23T06:06:37.627Z,12
2017-09-23T06:07:37.621Z,11.97
2017-09-23T06:08:37.618Z,12.12
2017-09-23T06:09:37.608Z,12.08
2017-09-23T06:10:37.913Z,12.14
2017-09-23T06:11:38.013Z,12.15
2017-09-23T06:12:37.591Z,12.12
2017-09-23T06:13:37.688Z,12.08
2017-09-23T06:14:38.304Z,12.2
2017-09-23T06:15:37.576Z,12.12
2017-09-23T06:16:37.930Z,12.21
2017-09-23T06:17:37.564Z,12.11
2017-09-23T06:18:38.232Z,12.3
2017-09-23T06:19:38.172Z,12.35
2017-09-23T06:20:38.164Z,12.32
2017-09-23T06:21:37.856Z,12.33
2017-09-23T06:22:37.845Z,12.33
2017-09-23T06:23:38.147Z,12.33
2017-09-23T06:24:38.244Z,12.37
2017-09-23T06:25:38.189Z,12.39
2017-09-23T06:26:37.821Z,12.44
2017-09-23T06:27:37.816Z,12.5
2017-09-23T06:28:38.116Z,12.51
2017-09-23T06:29:37.801Z,12.54
2017-09-23T06:30:37.487Z,12.62
2017-09-23T06:31:37.790Z,12.53
2017-09-23T06:32:37.824Z,12.73
2017-09-23T06:33:37.779Z,12.68
2017-09-23T06:34:37.774Z,12.76
2017-09-23T06:35:37.456Z,12.72
2017-09-23T06:36:37.862Z,12.75
2017-09-23T06:37:37.446Z,12.7
2017-09-23T06:38:37.750Z,12.78
2017-09-23T06:39:37.433Z,12.88
2017-09-23T06:40:38.048Z,12.87
2017-09-23T06:41:37.883Z,12.95
2017-09-23T06:42:38.237Z,12.99
2017-09-23T06:43:37.408Z,13.08
2017-09-23T06:44:37.716Z,13.09
2017-09-23T06:45:38.018Z,13.06
2017-09-23T06:46:37.700Z,13.12
2017-09-23T06:47:37.385Z,13.24
2017-09-23T06:48:37.380Z,13.3
2017-09-23T06:49:37.836Z,13.26
2017-09-23T06:50:37.682Z,13.19
2017-09-23T06:51:37.362Z,13.36
2017-09-23T06:52:37.672Z,13.28
2017-09-23T06:53:37.977Z,13.19
2017-09-23T06:54:37.345Z,13.26
2017-09-23T06:55:37.391Z,13.24
2017-09-23T06:56:37.957Z,13.3
2017-09-23T06:57:37.639Z,13.23
2017-09-23T06:58:37.941Z,13.24
2017-09-23T06:59:37.629Z,13.3
2017-09-23T07:00:37.313Z,13.31
2017-09-23T07:01:37.307Z,13.28
2017-09-23T07:02:37.611Z,13.26
2017-09-23T07:03:37.607Z,13.27
2017-09-23T07:04:37.290Z,13.26
2017-09-23T07:05:37.593Z,13.31
2017-09-23T07:06:37.897Z,13.21
2017-09-23T07:07:37.891Z,13.27
2017-09-23T07:08:37.572Z,13.26
2017-09-23T07:09:37.618Z,13.24
2017-09-23T07:10:37.716Z,13.19
2017-09-23T07:11:37.557Z,13.2
2017-09-23T07:12:37.240Z,13.3
2017-09-23T07:13:37.862Z,13.23
2017-09-23T07:14:37.380Z,13.3
2017-09-23T07:15:37.535Z,13.31
2017-09-23T07:16:37.838Z,13.28
2017-09-23T07:17:37.833Z,13.28
2017-09-23T07:18:37.827Z,13.28
2017-09-23T07:19:37.611Z,13.21
2017-09-23T07:20:37.504Z,13.13
2017-09-23T07:21:37.502Z,13.17
2017-09-23T07:22:37.495Z,13.19
2017-09-23T07:23:37.327Z,13.26
2017-09-23T07:24:37.890Z,13.28
2017-09-23T07:25:37.477Z,13.27
2017-09-23T07:26:37.784Z,13.4
2017-09-23T07:27:37.777Z,13.39
2017-09-23T07:28:37.554Z,13.36
2017-09-23T07:29:37.192Z,13.36
2017-09-23T07:30:37.443Z,13.31
2017-09-23T07:31:37.439Z,13.5
2017-09-23T07:32:37.588Z,13.42
2017-09-23T07:33:37.747Z,13.36
2017-09-23T07:34:37.888Z,13.4
2017-09-23T07:35:37.728Z,13.49
2017-09-23T07:36:37.725Z,13.49
2017-09-23T07:37:37.510Z,13.46
2017-09-23T07:38:37.709Z,13.5
2017-09-23T07:39:37.495Z,13.5
2017-09-23T07:40:37.488Z,13.62
2017-09-23T07:41:37.075Z,13.65
2017-09-23T07:42:37.071Z,13.62
2017-09-23T07:43:37.067Z,13.68
2017-09-23T07:44:37.683Z,13.71
2017-09-23T07:45:37.362Z,13.71
2017-09-23T07:46:37.356Z,13.71
2017-09-23T07:47:37.696Z,13.78
2017-09-23T07:48:37.383Z,13.71
2017-09-23T07:49:37.439Z,13.76
2017-09-23T07:50:37.332Z,13.73
2017-09-23T07:51:37.379Z,13.85
2017-09-23T07:52:37.321Z,13.79
2017-09-23T07:53:37.314Z,13.78
2017-09-23T07:54:37.312Z,13.83
2017-09-23T07:55:37.303Z,13.89
2017-09-23T07:56:36.985Z,13.85
2017-09-23T07:57:36.981Z,14
2017-09-23T07:58:37.627Z,13.98
2017-09-23T07:59:36.969Z,13.94
2017-09-23T08:00:36.964Z,14.04
2017-09-23T08:01:36.959Z,14.01
2017-09-23T08:02:36.952Z,14
2017-09-23T08:03:37.564Z,14.04
2017-09-23T08:04:36.938Z,14.15
2017-09-23T08:05:36.940Z,14.13
2017-09-23T08:06:37.238Z,14.15
2017-09-23T08:07:37.543Z,14.26
2017-09-23T08:08:37.019Z,14.26
2017-09-23T08:09:36.915Z,14.26
2017-09-23T08:10:36.909Z,14.18
2017-09-23T08:11:36.900Z,14.13
2017-09-23T08:12:37.518Z,14.07
2017-09-23T08:13:37.248Z,14.01
2017-09-23T08:14:37.193Z,14.03
2017-09-23T08:15:37.188Z,14.16
2017-09-23T08:16:36.873Z,14.22
2017-09-23T08:17:37.177Z,14.19
2017-09-23T08:18:37.172Z,14.19
2017-09-23T08:19:37.165Z,14.2
2017-09-23T08:20:36.949Z,14.2
2017-09-23T08:21:37.465Z,14.2
2017-09-23T08:22:37.151Z,14.23
2017-09-23T08:23:36.832Z,14.25
2017-09-23T08:24:37.452Z,14.25
2017-09-23T08:25:37.536Z,14.25
2017-09-23T08:26:37.177Z,14.18
2017-09-23T08:27:37.130Z,14.2
2017-09-23T08:28:36.802Z,14.26
2017-09-23T08:29:37.109Z,14.26
2017-09-23T08:30:36.794Z,14.31
2017-09-23T08:31:37.099Z,14.33
2017-09-23T08:32:37.093Z,14.38
2017-09-23T08:33:37.399Z,14.36
2017-09-23T08:34:37.128Z,14.36
2017-09-23T08:35:37.175Z,14.36
2017-09-23T08:36:37.067Z,14.38
2017-09-23T08:37:36.801Z,14.4
2017-09-23T08:38:37.058Z,14.38
2017-09-23T08:39:36.841Z,14.41
2017-09-23T08:40:36.733Z,14.59
2017-09-23T08:41:36.730Z,14.58
2017-09-23T08:42:37.037Z,14.59
2017-09-23T08:43:36.718Z,14.55
2017-09-23T08:44:37.332Z,14.58
2017-09-23T08:45:37.067Z,14.55
2017-09-23T08:46:37.012Z,14.49
2017-09-23T08:47:36.695Z,14.52
2017-09-23T08:48:37.006Z,14.61
2017-09-23T08:49:37.001Z,14.63
2017-09-23T08:50:36.987Z,14.7
2017-09-23T08:51:36.673Z,14.79
2017-09-23T08:52:36.977Z,14.86
2017-09-23T08:53:37.029Z,14.89
2017-09-23T08:54:36.656Z,15.05
2017-09-23T08:55:37.268Z,15.04
2017-09-23T08:56:36.652Z,15.1
2017-09-23T08:57:36.643Z,15.11
2017-09-23T08:58:36.953Z,15.15
2017-09-23T08:59:36.937Z,15.14
2017-09-23T09:00:36.723Z,15.25
2017-09-23T09:01:36.925Z,15.17
2017-09-23T09:02:37.241Z,15.29
2017-09-23T09:03:37.227Z,15.3
2017-09-23T09:04:36.910Z,15.23
2017-09-23T09:05:36.955Z,15.22
2017-09-23T09:06:36.588Z,15.35
2017-09-23T09:07:36.897Z,15.33
2017-09-23T09:08:36.576Z,15.5
2017-09-23T09:09:36.884Z,15.45
2017-09-23T09:10:36.930Z,15.45
2017-09-23T09:11:36.565Z,15.39
2017-09-23T09:12:36.557Z,15.44
2017-09-23T09:13:37.235Z,15.41
2017-09-23T09:14:36.853Z,15.45
2017-09-23T09:15:37.161Z,15.5
2017-09-23T09:16:37.253Z,15.52
2017-09-23T09:17:37.256Z,15.59
2017-09-23T09:18:36.626Z,15.65
2017-09-23T09:19:36.831Z,15.6
2017-09-23T09:20:37.139Z,15.65
2017-09-23T09:21:36.611Z,15.65
2017-09-23T09:22:36.507Z,15.65
2017-09-23T09:23:36.808Z,15.52
2017-09-23T09:24:37.162Z,15.57
2017-09-23T09:25:36.797Z,15.45
2017-09-23T09:26:36.793Z,15.32
2017-09-23T09:27:36.525Z,15.43
2017-09-23T09:28:37.092Z,15.39
2017-09-23T09:29:36.466Z,15.44
2017-09-23T09:30:36.772Z,15.44
2017-09-23T09:31:36.912Z,15.36
2017-09-23T09:32:36.761Z,15.45
2017-09-23T09:33:37.065Z,15.35
2017-09-23T09:34:36.435Z,15.41
2017-09-23T09:35:36.744Z,15.44
2017-09-23T09:36:36.736Z,15.45
2017-09-23T09:37:37.043Z,15.45
2017-09-23T09:38:36.415Z,15.45
2017-09-23T09:39:36.820Z,15.33
2017-09-23T09:40:36.818Z,15.43
2017-09-23T09:41:36.498Z,15.45
2017-09-23T09:42:36.395Z,15.45
2017-09-23T09:43:37.010Z,15.5
2017-09-23T09:44:36.383Z,15.5
2017-09-23T09:45:36.996Z,15.65
2017-09-23T09:46:36.377Z,15.73
2017-09-23T09:47:36.680Z,15.73
2017-09-23T09:48:36.367Z,15.83
2017-09-23T09:49:36.356Z,15.96
2017-09-23T09:50:36.351Z,16.02
2017-09-23T09:51:36.814Z,15.99
2017-09-23T09:52:36.649Z,16.17
2017-09-23T09:53:36.957Z,16.12
2017-09-23T09:54:36.639Z,16.26
2017-09-23T09:55:36.325Z,16.24
2017-09-23T09:56:36.467Z,16.34
2017-09-23T09:57:37.079Z,16.37
2017-09-23T09:58:36.766Z,16.37
2017-09-23T09:59:36.612Z,16.34
2017-09-23T10:00:36.298Z,16.37
2017-09-23T10:01:36.290Z,16.4
2017-09-23T10:02:36.598Z,16.44
2017-09-23T10:03:36.331Z,16.46
2017-09-23T10:04:36.279Z,16.43
2017-09-23T10:05:36.583Z,16.49
2017-09-23T10:06:36.266Z,16.51
2017-09-23T10:07:36.877Z,16.5
2017-09-23T10:08:37.075Z,16.58
2017-09-23T10:09:36.251Z,16.61
2017-09-23T10:10:36.867Z,16.65
2017-09-23T10:11:36.649Z,16.59
2017-09-23T10:12:36.234Z,16.65
2017-09-23T10:13:36.332Z,16.76
2017-09-23T10:14:36.224Z,16.77
2017-09-23T10:15:36.841Z,16.84
2017-09-23T10:16:36.215Z,16.87
2017-09-23T10:17:36.522Z,16.84
2017-09-23T10:18:36.512Z,16.84
2017-09-23T10:19:36.818Z,16.89
2017-09-23T10:20:36.501Z,16.94
2017-09-23T10:21:36.502Z,16.89
2017-09-23T10:22:36.594Z,16.89
2017-09-23T10:23:36.797Z,16.91
2017-09-23T10:24:36.481Z,16.91
2017-09-23T10:25:36.473Z,16.87
2017-09-23T10:26:36.156Z,16.89
2017-09-23T10:27:36.466Z,16.83
2017-09-23T10:28:36.458Z,16.89
2017-09-23T10:29:36.766Z,16.94
2017-09-23T10:30:36.442Z,17.04
2017-09-23T10:31:36.128Z,17.1
2017-09-23T10:32:36.743Z,17.02
2017-09-23T10:33:36.425Z,17.16
2017-09-23T10:34:36.112Z,17.09
2017-09-23T10:35:36.417Z,17.13
2017-09-23T10:36:36.102Z,17.23
2017-09-23T10:37:36.715Z,17.32
2017-09-23T10:38:36.403Z,17.37
2017-09-23T10:39:36.399Z,17.35
2017-09-23T10:40:36.798Z,17.35
2017-09-23T10:41:36.482Z,17.42
2017-09-23T10:42:36.070Z,17.46
2017-09-23T10:43:36.376Z,17.47
2017-09-23T10:44:36.058Z,17.52
2017-09-23T10:45:36.057Z,17.63
2017-09-23T10:46:36.613Z,17.66
2017-09-23T10:47:36.354Z,17.6
2017-09-23T10:48:36.045Z,17.68
2017-09-23T10:49:36.035Z,17.63
2017-09-23T10:50:36.342Z,17.73
2017-09-23T10:51:36.748Z,17.71
2017-09-23T10:52:36.480Z,17.69
2017-09-23T10:53:36.326Z,17.72
2017-09-23T10:54:36.628Z,17.8
2017-09-23T10:55:36.315Z,17.78
2017-09-23T10:56:36.000Z,17.78
2017-09-23T10:57:36.615Z,17.87
2017-09-23T10:58:36.301Z,17.87
2017-09-23T10:59:36.292Z,17.93
2017-09-23T11:00:36.288Z,17.88
2017-09-23T11:01:35.971Z,17.91
2017-09-23T11:02:36.591Z,18.02
2017-09-23T11:03:36.278Z,17.94
2017-09-23T11:04:36.268Z,17.94
2017-09-23T11:05:35.955Z,17.95
2017-09-23T11:06:36.097Z,18
2017-09-23T11:07:36.560Z,18.06
2017-09-23T11:08:36.558Z,18.09
2017-09-23T11:09:36.244Z,18.11
2017-09-23T11:10:36.286Z,18.12
2017-09-23T11:11:36.280Z,18.11
2017-09-23T11:12:36.228Z,18.26
2017-09-23T11:13:35.912Z,18.23
2017-09-23T11:14:35.907Z,18.26
2017-09-23T11:15:36.308Z,18.27
2017-09-23T11:16:36.262Z,18.18
2017-09-23T11:17:36.202Z,18.28
2017-09-23T11:18:36.505Z,18.24
2017-09-23T11:19:35.882Z,18.36
2017-09-23T11:20:36.501Z,18.43
2017-09-23T11:21:35.870Z,18.42
2017-09-23T11:22:35.863Z,18.41
2017-09-23T11:23:36.485Z,18.41
2017-09-23T11:24:36.167Z,18.53
2017-09-23T11:25:36.156Z,18.55
2017-09-23T11:26:36.153Z,18.49
2017-09-23T11:27:36.246Z,18.57
2017-09-23T11:28:36.146Z,18.63
2017-09-23T11:29:36.450Z,18.64
2017-09-23T11:30:36.134Z,18.67
2017-09-23T11:31:36.227Z,18.7
2017-09-23T11:32:36.127Z,18.66
2017-09-23T11:33:36.119Z,18.71
2017-09-23T11:34:36.453Z,18.68
2017-09-23T11:35:35.798Z,18.74
2017-09-23T11:36:36.108Z,18.68
2017-09-23T11:37:36.565Z,18.73
2017-09-23T11:38:35.787Z,18.74
2017-09-23T11:39:36.091Z,18.73
2017-09-23T11:40:35.875Z,18.64
2017-09-23T11:41:36.388Z,18.83
2017-09-23T11:42:36.077Z,18.82
2017-09-23T11:43:35.759Z,18.81
2017-09-23T11:44:35.757Z,18.82
2017-09-23T11:45:36.368Z,18.83
2017-09-23T11:46:35.749Z,18.83
2017-09-23T11:47:36.052Z,18.91
2017-09-23T11:48:36.044Z,18.97
2017-09-23T11:49:36.040Z,18.92
2017-09-23T11:50:36.037Z,18.96
2017-09-23T11:51:36.144Z,19
2017-09-23T11:52:36.032Z,18.96
2017-09-23T11:53:35.715Z,19.04
2017-09-23T11:54:35.712Z,19.05
2017-09-23T11:55:36.323Z,18.97
2017-09-23T11:56:35.801Z,19
2017-09-23T11:57:36.001Z,19.11
2017-09-23T11:58:35.838Z,19.12
2017-09-23T11:59:35.683Z,19.16
2017-09-23T12:00:36.134Z,19.12
2017-09-23T12:01:36.081Z,19.26
2017-09-23T12:02:35.977Z,19.22
2017-09-23T12:03:35.979Z,19.24
2017-09-23T12:04:35.996Z,19.2
2017-09-23T12:05:36.435Z,19.34
2017-09-23T12:06:35.656Z,19.23
2017-09-23T12:07:36.275Z,19.24
2017-09-23T12:08:36.055Z,19.27
2017-09-23T12:09:35.949Z,19.35
2017-09-23T12:10:35.944Z,19.34
2017-09-23T12:11:35.628Z,19.49
2017-09-23T12:12:35.943Z,19.42
2017-09-23T12:13:35.617Z,19.49
2017-09-23T12:14:35.714Z,19.44
2017-09-23T12:15:35.922Z,19.49
2017-09-23T12:16:35.605Z,19.59
2017-09-23T12:17:36.062Z,19.56
2017-09-23T12:18:35.907Z,19.57
2017-09-23T12:19:36.371Z,19.53
2017-09-23T12:20:36.362Z,19.59
2017-09-23T12:21:35.894Z,19.57
2017-09-23T12:22:35.577Z,19.64
2017-09-23T12:23:35.979Z,19.7
2017-09-23T12:24:36.078Z,19.77
2017-09-23T12:25:36.237Z,19.81
2017-09-23T12:26:36.014Z,19.77
2017-09-23T12:27:35.563Z,19.78
2017-09-23T12:28:35.959Z,19.79
2017-09-23T12:29:35.952Z,19.85
2017-09-23T12:30:36.166Z,19.87
2017-09-23T12:31:35.632Z,19.85
2017-09-23T12:32:35.994Z,19.84
2017-09-23T12:33:35.832Z,19.84
2017-09-23T12:34:35.669Z,19.87
2017-09-23T12:35:35.519Z,19.87
2017-09-23T12:36:35.822Z,19.94
2017-09-23T12:37:36.126Z,19.96
2017-09-23T12:38:35.500Z,20
2017-09-23T12:39:35.907Z,20.03
2017-09-23T12:40:36.056Z,20
2017-09-23T12:41:35.793Z,20.1
2017-09-23T12:42:35.482Z,20.1
2017-09-23T12:43:35.785Z,20.15
2017-09-23T12:44:36.099Z,20.15
2017-09-23T12:45:35.564Z,20.19
2017-09-23T12:46:35.922Z,20.18
2017-09-23T12:47:35.607Z,20.27
2017-09-23T12:48:36.076Z,20.33
2017-09-23T12:49:35.757Z,20.34
2017-09-23T12:50:35.904Z,20.4
2017-09-23T12:51:35.749Z,20.29
2017-09-23T12:52:35.433Z,20.34
2017-09-23T12:53:35.740Z,20.39
2017-09-23T12:54:36.044Z,20.33
2017-09-23T12:55:36.035Z,20.29